Time;durP1;ratioP1;P1;durP2;ratioP2;P2;SDS_P1;SDS_P2;PMS_P1;PMS_P2;Temp;Humidity;BMP_temperature;BMP_pressure;BME280_temperature;BME280_humidity;BME280_pressure;Samples;Min_cycle;Max_cycle;Signal;HPM_P1;HPM_P2
2022/03/26 00:00:01;;;;;;;;;;;;;;;9.51;38.60;93551.97;2047903;70;20507;-74
2022/03/26 00:02:28;;;;;;;;;;;;;;;9.60;39.36;93550.53;2048652;70;20505;-74
2022/03/26 00:04:55;;;;;;;;;;;;;;;9.36;40.02;93552.19;2045562;70;20047;-74
2022/03/26 00:07:20;;;;;;;;;;;;;;;9.79;38.92;93555.50;2048243;70;20094;-73
2022/03/26 00:09:46;;;;;;;;;;;;;;;9.79;38.46;93561.88;2048686;70;20445;-74
2022/03/26 00:12:11;;;;;;;;;;;;;;;9.89;37.87;93559.84;2050228;70;20042;-74
2022/03/26 00:14:37;;;;;;;;;;;;;;;9.67;37.96;93560.94;2065289;69;20063;-73
2022/03/26 00:17:02;;;;;;;;;;;;;;;9.62;38.99;93561.94;2068428;69;20477;-74
2022/03/26 00:19:28;;;;;;;;;;;;;;;9.38;39.72;93550.28;2055480;70;20054;-74
2022/03/26 00:21:54;;;;;;;;;;;;;;;9.25;40.70;93555.53;2065700;69;20043;-73
2022/03/26 00:24:19;;;;;;;;;;;;;;;9.11;40.84;93558.69;2055419;69;20133;-74
2022/03/26 00:26:45;;;;;;;;;;;;;;;9.04;41.52;93553.91;2068334;69;20119;-74
2022/03/26 00:29:10;;;;;;;;;;;;;;;8.91;41.69;93557.81;2055130;69;20082;-73
2022/03/26 00:31:37;;;;;;;;;;;;;;;8.84;41.21;93553.03;2065487;69;20058;-74
2022/03/26 00:34:03;;;;;;;;;;;;;;;8.93;41.13;93551.59;2068381;69;20546;-74
2022/03/26 00:36:29;;;;;;;;;;;;;;;9.22;39.44;93554.63;2068087;69;20066;-73
2022/03/26 00:38:54;;;;;;;;;;;;;;;8.29;nan;93556.97;2068370;69;20424;-73
2022/03/26 00:41:20;;;;;;;;;;;;;;;8.86;39.49;93561.63;2055474;70;20096;-74
2022/03/26 00:43:45;;;;;;;;;;;;;;;8.75;41.33;93552.94;2055122;70;20424;-73
2022/03/26 00:46:11;;;;;;;;;;;;;;;8.55;42.18;93546.44;2055084;70;20084;-74
2022/03/26 00:48:36;;;;;;;;;;;;;;;8.33;43.43;93559.34;2065230;69;20074;-73
2022/03/26 00:51:04;;;;;;;;;;;;;;;8.64;40.92;93557.75;2055333;70;20061;-74
2022/03/26 00:53:29;;;;;;;;;;;;;;;8.54;43.15;93554.13;2068100;69;20497;-74
2022/03/26 00:55:55;;;;;;;;;;;;;;;8.81;39.72;93556.25;2068278;69;20169;-74
2022/03/26 00:58:20;;;;;;;;;;;;;;;8.92;40.16;93558.56;2065000;69;20078;-73
2022/03/26 01:00:46;;;;;;;;;;;;;;;8.53;42.04;93565.94;2055057;69;20058;-73
2022/03/26 01:03:11;;;;;;;;;;;;;;;8.51;41.86;93560.88;2068478;69;20095;-73
2022/03/26 01:05:38;;;;;;;;;;;;;;;8.43;42.03;93563.03;2055250;69;20054;-74
2022/03/26 01:08:05;;;;;;;;;;;;;;;8.46;42.42;93561.13;2055268;69;20050;-74
2022/03/26 01:10:30;;;;;;;;;;;;;;;8.41;42.32;93562.84;2055067;69;20086;-74
2022/03/26 01:12:56;;;;;;;;;;;;;;;8.40;41.83;93552.97;2055007;69;20478;-74
2022/03/26 01:15:22;;;;;;;;;;;;;;;8.47;41.84;93557.00;2068045;69;20145;-74
2022/03/26 01:17:48;;;;;;;;;;;;;;;8.23;42.89;93561.31;2055180;69;20420;-73
2022/03/26 01:20:13;;;;;;;;;;;;;;;7.74;44.85;93552.38;2065346;69;20127;-73
2022/03/26 01:22:39;;;;;;;;;;;;;;;8.08;43.05;93556.59;2054876;69;20144;-73
2022/03/26 01:25:05;;;;;;;;;;;;;;;8.04;43.12;93564.66;2055553;69;20054;-73
2022/03/26 01:27:31;;;;;;;;;;;;;;;8.13;42.57;93555.63;2068308;69;20454;-73
2022/03/26 01:29:57;;;;;;;;;;;;;;;7.85;43.63;93554.00;2055495;69;20066;-73
2022/03/26 01:32:23;;;;;;;;;;;;;;;7.57;45.55;93560.75;2055471;70;20078;-73
2022/03/26 01:34:48;;;;;;;;;;;;;;;7.72;43.79;93559.88;2055624;70;20082;-73
2022/03/26 01:37:16;;;;;;;;;;;;;;;7.66;44.57;93556.56;2055561;70;20072;-73
2022/03/26 01:39:42;;;;;;;;;;;;;;;7.78;43.61;93557.59;2055229;69;20074;-73
2022/03/26 01:42:07;;;;;;;;;;;;;;;7.81;43.56;93557.19;2068454;69;20145;-73
2022/03/26 01:44:33;;;;;;;;;;;;;;;8.14;41.85;93560.63;2068424;69;20050;-73
2022/03/26 01:47:03;;;;;;;;;;;;;;;7.82;43.81;93567.06;2055557;70;20493;-73
2022/03/26 01:49:29;;;;;;;;;;;;;;;7.70;44.98;93560.47;2065771;69;20529;-73
2022/03/26 01:51:55;;;;;;;;;;;;;;;7.62;44.33;93559.75;2055516;70;20447;-73
2022/03/26 01:54:21;;;;;;;;;;;;;;;7.58;44.61;93562.97;2055440;70;20069;-73
2022/03/26 01:56:46;;;;;;;;;;;;;;;7.65;44.58;93558.59;2055462;70;20049;-73
2022/03/26 01:59:12;;;;;;;;;;;;;;;7.67;43.95;93558.06;2065463;69;20057;-71
2022/03/26 02:01:38;;;;;;;;;;;;;;;7.30;45.37;93564.06;2055495;69;20099;-73
2022/03/26 02:04:05;;;;;;;;;;;;;;;7.43;44.37;93571.47;2055399;69;20050;-73
2022/03/26 02:06:33;;;;;;;;;;;;;;;7.21;46.24;93577.94;2055444;70;20177;-73
2022/03/26 02:09:02;;;;;;;;;;;;;;;7.34;44.83;93569.28;2068359;69;20062;-74
2022/03/26 02:11:32;;;;;;;;;;;;;;;7.36;44.38;93567.38;2068129;69;20115;-73
2022/03/26 02:13:58;;;;;;;;;;;;;;;7.26;45.50;93572.13;2068267;69;20127;-73
2022/03/26 02:16:24;;;;;;;;;;;;;;;7.22;45.73;93566.16;2068316;69;20051;-73
2022/03/26 02:18:50;;;;;;;;;;;;;;;7.07;46.78;93569.78;2055424;70;20089;-73
2022/03/26 02:21:16;;;;;;;;;;;;;;;7.17;46.67;93566.38;2068404;69;20089;-73
2022/03/26 02:23:42;;;;;;;;;;;;;;;7.09;46.12;93566.41;2068428;69;20497;-73
2022/03/26 02:26:07;;;;;;;;;;;;;;;7.07;46.76;93569.78;2068412;69;20061;-73
2022/03/26 02:28:33;;;;;;;;;;;;;;;7.07;45.98;93569.78;2068395;69;20501;-73
2022/03/26 02:30:59;;;;;;;;;;;;;;;6.92;46.65;93567.06;2068284;69;20112;-73
2022/03/26 02:33:24;;;;;;;;;;;;;;;6.85;46.82;93571.38;2065638;69;20142;-73
2022/03/26 02:35:50;;;;;;;;;;;;;;;6.76;46.54;93574.78;2055422;69;20074;-73
2022/03/26 02:38:15;;;;;;;;;;;;;;;6.82;45.89;93569.69;2068342;69;20438;-73
2022/03/26 02:40:41;;;;;;;;;;;;;;;6.75;46.84;93567.69;2055232;70;20070;-73
2022/03/26 02:43:06;;;;;;;;;;;;;;;6.78;45.59;93572.16;2055157;69;20050;-74
2022/03/26 02:45:32;;;;;;;;;;;;;;;6.90;46.31;93569.69;2055156;69;20053;-74
2022/03/26 02:47:58;;;;;;;;;;;;;;;6.86;45.96;93575.66;2055381;70;20572;-74
2022/03/26 02:50:24;;;;;;;;;;;;;;;6.70;46.74;93579.09;2065504;69;20492;-74
2022/03/26 02:52:50;;;;;;;;;;;;;;;6.53;47.33;93566.44;2068277;69;20050;-74
2022/03/26 02:55:16;;;;;;;;;;;;;;;6.50;47.01;93569.63;2055377;70;20512;-73
2022/03/26 02:57:42;;;;;;;;;;;;;;;6.45;47.65;93576.16;2068304;69;20498;-74
2022/03/26 03:00:08;;;;;;;;;;;;;;;6.50;47.32;93580.81;2055161;69;20493;-74
2022/03/26 03:02:34;;;;;;;;;;;;;;;6.61;45.80;93581.16;2055370;70;20084;-74
2022/03/26 03:05:00;;;;;;;;;;;;;;;6.50;47.47;93584.34;2068229;69;20046;-74
2022/03/26 03:07:25;;;;;;;;;;;;;;;6.50;47.24;93575.97;2055237;70;20058;-74
2022/03/26 03:09:51;;;;;;;;;;;;;;;6.37;48.07;93576.19;2055365;70;20051;-73
2022/03/26 03:12:17;;;;;;;;;;;;;;;6.34;48.00;93575.25;2064652;69;20063;-74
2022/03/26 03:14:43;;;;;;;;;;;;;;;6.54;46.45;93575.59;2048598;70;20047;-74
2022/03/26 03:17:09;;;;;;;;;;;;;;;6.58;46.63;93590.69;2048222;70;20492;-74
2022/03/26 03:19:34;;;;;;;;;;;;;;;6.48;46.77;93581.38;2045423;70;20062;-73
2022/03/26 03:22:00;;;;;;;;;;;;;;;6.54;43.99;93581.94;2048135;70;20239;-73
2022/03/26 03:24:25;;;;;;;;;;;;;;;6.51;47.20;93591.47;2049196;70;20055;-74
2022/03/26 03:26:50;;;;;;;;;;;;;;;5.83;49.39;93595.03;2048502;70;20186;-72
2022/03/26 03:29:16;;;;;;;;;;;;;;;6.11;48.25;93599.72;2047769;70;20077;-72
2022/03/26 03:31:47;;;;;;;;;;;;;;;6.04;48.36;93594.88;2048829;70;20146;-73
2022/03/26 03:34:13;;;;;;;;;;;;;;;6.46;46.65;93591.63;2049227;70;20105;-73
2022/03/26 03:36:39;;;;;;;;;;;;;;;6.41;46.42;93589.78;2048487;70;20047;-73
2022/03/26 03:39:04;;;;;;;;;;;;;;;6.85;43.54;93593.78;2048684;70;20105;-73
2022/03/26 03:41:30;;;;;;;;;;;;;;;6.70;45.24;93579.84;2045798;70;20205;-73
2022/03/26 03:43:55;;;;;;;;;;;;;;;6.38;46.70;93585.34;2049092;70;20077;-73
2022/03/26 03:46:21;;;;;;;;;;;;;;;6.76;45.10;93580.38;2045847;70;20078;-73
2022/03/26 03:48:46;;;;;;;;;;;;;;;6.42;46.55;93580.84;2048606;70;20477;-73
2022/03/26 03:51:12;;;;;;;;;;;;;;;6.40;47.15;93586.25;2049231;70;20073;-73
2022/03/26 03:53:38;;;;;;;;;;;;;;;6.34;47.52;93580.84;2049235;70;20046;-74
2022/03/26 03:56:04;;;;;;;;;;;;;;;6.42;45.66;93585.72;2048911;70;20051;-74
2022/03/26 03:58:29;;;;;;;;;;;;;;;6.38;46.86;93582.53;2049055;70;20087;-73
2022/03/26 04:00:55;;;;;;;;;;;;;;;6.36;47.04;93583.81;2049018;70;20491;-73
2022/03/26 04:03:21;;;;;;;;;;;;;;;6.40;45.81;93585.50;2049000;70;20081;-72
2022/03/26 04:05:47;;;;;;;;;;;;;;;6.18;48.36;93579.38;2048870;70;20104;-73
2022/03/26 04:08:12;;;;;;;;;;;;;;;6.32;46.16;93577.91;2049238;70;20055;-73
2022/03/26 04:10:38;;;;;;;;;;;;;;;6.35;46.73;93581.59;2048886;70;20051;-74
2022/03/26 04:13:03;;;;;;;;;;;;;;;6.26;47.03;93582.91;2052604;70;20066;-73
2022/03/26 04:15:29;;;;;;;;;;;;;;;6.06;46.54;93586.69;2055118;70;20054;-74
2022/03/26 04:17:55;;;;;;;;;;;;;;;6.66;45.29;93582.28;2055366;69;20057;-73
2022/03/26 04:20:21;;;;;;;;;;;;;;;6.94;44.76;93588.91;2055498;70;20080;-75
2022/03/26 04:22:46;;;;;;;;;;;;;;;6.87;44.73;93590.41;2068604;69;20054;-74
2022/03/26 04:25:12;;;;;;;;;;;;;;;6.67;43.70;93594.94;2055326;70;20177;-74
2022/03/26 04:27:41;;;;;;;;;;;;;;;6.39;45.77;93589.63;2055419;70;20062;-74
2022/03/26 04:30:07;;;;;;;;;;;;;;;6.30;46.37;93600.06;2055408;70;20554;-74
2022/03/26 04:32:32;;;;;;;;;;;;;;;6.30;45.34;93593.72;2068335;69;20082;-73
2022/03/26 04:34:58;;;;;;;;;;;;;;;6.26;46.54;93588.50;2068227;69;20057;-73
2022/03/26 04:37:24;;;;;;;;;;;;;;;6.28;44.14;93596.34;2068114;69;20127;-73
2022/03/26 04:39:49;;;;;;;;;;;;;;;6.19;46.22;93591.34;2055244;69;20043;-74
2022/03/26 04:42:15;;;;;;;;;;;;;;;5.98;47.05;93586.69;2065850;69;20070;-74
2022/03/26 04:44:40;;;;;;;;;;;;;;;6.05;47.44;93591.53;2065324;69;20149;-73
2022/03/26 04:47:06;;;;;;;;;;;;;;;6.20;45.88;93593.56;2055038;70;20054;-74
2022/03/26 04:49:31;;;;;;;;;;;;;;;5.75;48.54;93594.28;2068192;69;20088;-74
2022/03/26 04:51:57;;;;;;;;;;;;;;;5.95;46.53;93596.16;2068330;69;20393;-75
2022/03/26 04:54:22;;;;;;;;;;;;;;;5.98;47.35;93594.31;2055689;70;20058;-74
2022/03/26 04:56:47;;;;;;;;;;;;;;;5.89;47.38;93601.19;2065445;69;20077;-74
2022/03/26 04:59:13;;;;;;;;;;;;;;;5.93;48.00;93601.59;2068012;69;20161;-73
2022/03/26 05:01:38;;;;;;;;;;;;;;;6.07;47.45;93600.09;2068087;69;20042;-73
2022/03/26 05:04:04;;;;;;;;;;;;;;;5.85;47.97;93606.41;2068111;69;20105;-74
2022/03/26 05:06:29;;;;;;;;;;;;;;;5.78;48.26;93609.94;2055626;69;20053;-74
2022/03/26 05:08:55;;;;;;;;;;;;;;;5.91;45.40;93603.41;2068270;69;20156;-74
2022/03/26 05:11:22;;;;;;;;;;;;;;;5.93;47.63;93609.97;2055000;69;20505;-74
2022/03/26 05:13:47;;;;;;;;;;;;;;;5.84;47.81;93608.44;2067886;69;20077;-74
2022/03/26 05:16:13;;;;;;;;;;;;;;;5.76;48.46;93613.28;2055131;69;20448;-74
2022/03/26 05:18:39;;;;;;;;;;;;;;;5.71;48.54;93621.84;2055035;70;20488;-75
2022/03/26 05:21:07;;;;;;;;;;;;;;;5.66;48.65;93617.94;2068198;69;20691;-74
2022/03/26 05:23:33;;;;;;;;;;;;;;;5.61;48.48;93616.06;2068091;69;20111;-75
2022/03/26 05:25:59;;;;;;;;;;;;;;;5.72;48.15;93623.34;2068500;69;20090;-74
2022/03/26 05:28:25;;;;;;;;;;;;;;;5.77;48.27;93628.75;2055410;69;20086;-74
2022/03/26 05:30:52;;;;;;;;;;;;;;;5.59;49.57;93633.41;2068616;69;20116;-74
2022/03/26 05:33:18;;;;;;;;;;;;;;;5.57;49.09;93633.19;2055678;70;20465;-75
2022/03/26 05:35:44;;;;;;;;;;;;;;;5.59;49.29;93638.25;2068546;69;20047;-74
2022/03/26 05:38:10;;;;;;;;;;;;;;;5.66;48.34;93640.28;2055698;69;20142;-75
2022/03/26 05:40:36;;;;;;;;;;;;;;;5.62;48.23;93634.31;2055852;69;20054;-75
2022/03/26 05:43:01;;;;;;;;;;;;;;;5.57;49.12;93641.56;2055272;69;20100;-75
2022/03/26 05:45:27;;;;;;;;;;;;;;;5.69;48.94;93627.25;2068383;69;20054;-73
2022/03/26 05:47:57;;;;;;;;;;;;;;;5.61;49.61;93639.16;2068602;69;20042;-75
2022/03/26 05:50:22;;;;;;;;;;;;;;;5.59;49.66;93643.81;2068362;69;20046;-75
2022/03/26 05:52:48;;;;;;;;;;;;;;;5.52;50.71;93638.97;2068581;69;20404;-75
2022/03/26 05:55:16;;;;;;;;;;;;;;;5.54;50.51;93645.50;2068683;69;20069;-75
2022/03/26 05:57:41;;;;;;;;;;;;;;;5.62;49.78;93651.06;2055592;69;20070;-74
2022/03/26 06:00:07;;;;;;;;;;;;;;;5.47;50.30;93649.00;2068423;69;20371;-75
2022/03/26 06:02:34;;;;;;;;;;;;;;;5.52;50.45;93655.72;2055766;70;20481;-74
2022/03/26 06:04:59;;;;;;;;;;;;;;;5.48;49.72;93650.50;2068615;69;20058;-75
2022/03/26 06:07:25;;;;;;;;;;;;;;;5.52;50.54;93655.72;2055612;69;20402;-75
2022/03/26 06:09:50;;;;;;;;;;;;;;;5.52;50.68;93658.50;2068695;69;20163;-75
2022/03/26 06:12:16;;;;;;;;;;;;;;;5.71;49.49;93663.75;2055662;69;20074;-75
2022/03/26 06:14:42;;;;;;;;;;;;;;;5.81;47.96;93659.84;2055459;69;20082;-74
2022/03/26 06:17:07;;;;;;;;;;;;;;;5.61;48.89;93660.75;2068559;69;20086;-75
2022/03/26 06:19:33;;;;;;;;;;;;;;;5.53;50.92;93657.94;2055666;70;20082;-74
2022/03/26 06:21:58;;;;;;;;;;;;;;;5.59;50.79;93658.53;2068668;69;20046;-74
2022/03/26 06:24:24;;;;;;;;;;;;;;;5.65;50.81;93666.75;2055669;70;20116;-74
2022/03/26 06:26:49;;;;;;;;;;;;;;;5.43;52.15;93667.44;2055661;69;20488;-73
2022/03/26 06:29:16;;;;;;;;;;;;;;;5.62;49.14;93659.47;2055445;69;20481;-74
2022/03/26 06:31:42;;;;;;;;;;;;;;;5.70;50.73;93671.41;2068382;69;20056;-74
2022/03/26 06:34:08;;;;;;;;;;;;;;;5.61;50.57;93667.09;2055538;70;20145;-74
2022/03/26 06:36:34;;;;;;;;;;;;;;;5.72;50.07;93666.00;2055611;70;20119;-74
2022/03/26 06:39:01;;;;;;;;;;;;;;;5.65;50.92;93663.19;2055487;70;20124;-74
2022/03/26 06:41:26;;;;;;;;;;;;;;;5.59;51.75;93666.91;2055581;69;20050;-74
2022/03/26 06:43:52;;;;;;;;;;;;;;;5.74;51.06;93668.25;2068413;69;20499;-74
2022/03/26 06:46:17;;;;;;;;;;;;;;;5.81;51.79;93676.63;2055518;70;20093;-74
2022/03/26 06:48:43;;;;;;;;;;;;;;;5.81;50.85;93675.88;2055656;69;20051;-74
2022/03/26 06:51:08;;;;;;;;;;;;;;;5.92;51.07;93669.22;2055557;69;20486;-74
2022/03/26 06:53:34;;;;;;;;;;;;;;;5.99;50.35;93665.69;2068738;69;20050;-74
2022/03/26 06:56:01;;;;;;;;;;;;;;;6.08;50.05;93668.66;2068498;69;20054;-74
2022/03/26 06:58:26;;;;;;;;;;;;;;;6.02;50.74;93670.16;2055928;70;20477;-74
2022/03/26 07:00:52;;;;;;;;;;;;;;;5.98;50.97;93675.38;2055871;69;20058;-74
2022/03/26 07:03:18;;;;;;;;;;;;;;;6.22;49.72;93666.44;2055994;70;20119;-74
2022/03/26 07:05:43;;;;;;;;;;;;;;;6.25;50.55;93672.97;2068578;69;20057;-74
2022/03/26 07:08:09;;;;;;;;;;;;;;;6.29;50.51;93676.88;2056095;70;20172;-73
2022/03/26 07:10:35;;;;;;;;;;;;;;;6.40;49.67;93677.81;2055950;69;20057;-74
2022/03/26 07:13:00;;;;;;;;;;;;;;;6.32;50.14;93678.56;2056125;69;20419;-74
2022/03/26 07:15:26;;;;;;;;;;;;;;;6.36;50.71;93678.19;2055886;70;20082;-75
2022/03/26 07:17:51;;;;;;;;;;;;;;;6.53;47.79;93683.22;2068906;69;20061;-73
2022/03/26 07:20:17;;;;;;;;;;;;;;;6.54;49.84;93679.84;2056099;70;20055;-73
2022/03/26 07:22:42;;;;;;;;;;;;;;;6.48;50.12;93684.16;2056077;69;20053;-74
2022/03/26 07:25:08;;;;;;;;;;;;;;;6.67;49.91;93680.97;2055921;70;20073;-74
2022/03/26 07:27:34;;;;;;;;;;;;;;;7.01;50.46;93684.06;2068977;69;20086;-75
2022/03/26 07:30:00;;;;;;;;;;;;;;;7.06;50.62;93676.78;2066098;69;20058;-74
2022/03/26 07:32:25;;;;;;;;;;;;;;;7.57;49.06;93681.22;2068894;69;20496;-75
2022/03/26 07:34:51;;;;;;;;;;;;;;;7.87;46.09;93686.66;2068866;69;20082;-73
2022/03/26 07:37:17;;;;;;;;;;;;;;;8.26;47.31;93681.56;2055862;70;20055;-75
2022/03/26 07:39:42;;;;;;;;;;;;;;;8.71;45.28;93693.75;2055895;69;20124;-74
2022/03/26 07:42:08;;;;;;;;;;;;;;;9.21;43.56;93693.63;2068925;69;20500;-75
2022/03/26 07:44:33;;;;;;;;;;;;;;;9.41;44.94;93695.25;2055805;69;20076;-74
2022/03/26 07:46:59;;;;;;;;;;;;;;;9.53;43.92;93692.69;2056032;69;20402;-74
2022/03/26 07:49:24;;;;;;;;;;;;;;;9.91;42.06;93691.47;2056113;70;20054;-73
2022/03/26 07:51:50;;;;;;;;;;;;;;;10.54;42.54;93704.09;2055886;69;20145;-73
2022/03/26 07:54:15;;;;;;;;;;;;;;;10.92;42.07;93697.81;2055761;70;20054;-74
2022/03/26 07:56:41;;;;;;;;;;;;;;;10.54;41.52;93701.28;2055677;70;20101;-73
2022/03/26 07:59:07;;;;;;;;;;;;;;;11.17;39.79;93689.84;2068589;69;20442;-74
2022/03/26 08:01:32;;;;;;;;;;;;;;;11.24;39.46;93687.50;2055926;69;20142;-75
2022/03/26 08:03:58;;;;;;;;;;;;;;;11.68;39.17;93685.13;2055779;70;20053;-74
2022/03/26 08:06:23;;;;;;;;;;;;;;;11.76;38.21;93689.84;2055848;70;20481;-74
2022/03/26 08:08:49;;;;;;;;;;;;;;;12.52;39.28;93688.19;2068701;69;20142;-75
2022/03/26 08:11:15;;;;;;;;;;;;;;;13.23;37.33;93686.66;2055870;70;20145;-74
2022/03/26 08:13:40;;;;;;;;;;;;;;;13.24;36.14;93696.63;2056008;69;20066;-74
2022/03/26 08:16:09;;;;;;;;;;;;;;;13.83;36.05;93694.06;2055755;69;20062;-74
2022/03/26 08:18:35;;;;;;;;;;;;;;;13.75;34.90;93694.31;2055989;69;20054;-75
2022/03/26 08:21:01;;;;;;;;;;;;;;;13.58;35.30;93692.50;2055991;69;20444;-75
2022/03/26 08:23:26;;;;;;;;;;;;;;;13.78;35.17;93686.66;2055863;69;20042;-75
2022/03/26 08:28:36;;;;;;;;;;;;;;;15.09;33.24;93682.09;2056021;70;20508;-76
2022/03/26 08:31:02;;;;;;;;;;;;;;;14.81;33.28;93686.78;2055712;69;20069;-78
2022/03/26 08:33:27;;;;;;;;;;;;;;;14.93;33.99;93675.44;2055963;69;20054;-78
2022/03/26 08:35:53;;;;;;;;;;;;;;;15.12;32.23;93675.19;2068849;69;20054;-78
2022/03/26 08:38:18;;;;;;;;;;;;;;;14.66;32.22;93673.84;2055779;70;20050;-78
2022/03/26 08:40:44;;;;;;;;;;;;;;;15.54;32.77;93678.31;2055830;70;20120;-78
2022/03/26 08:43:10;;;;;;;;;;;;;;;15.62;30.74;93670.25;2055890;69;20050;-77
2022/03/26 08:45:35;;;;;;;;;;;;;;;15.84;31.47;93679.34;2068690;69;20054;-77
2022/03/26 08:48:01;;;;;;;;;;;;;;;16.88;30.93;93671.56;2055826;69;20136;-76
2022/03/26 08:50:26;;;;;;;;;;;;;;;15.48;30.75;93668.06;2055932;70;20134;-76
2022/03/26 08:52:52;;;;;;;;;;;;;;;15.81;31.31;93669.97;2055768;70;20058;-78
2022/03/26 08:55:18;;;;;;;;;;;;;;;15.91;31.00;93667.72;2068852;69;20093;-75
2022/03/26 08:57:44;;;;;;;;;;;;;;;16.78;30.40;93676.72;2068685;69;20050;-77
2022/03/26 09:00:10;;;;;;;;;;;;;;;17.11;29.82;93670.63;2055611;70;20409;-76
2022/03/26 09:02:36;;;;;;;;;;;;;;;17.54;29.51;93669.97;2055651;70;20528;-75
2022/03/26 09:05:02;;;;;;;;;;;;;;;17.91;29.43;93661.13;2055658;69;20106;-76
2022/03/26 09:07:27;;;;;;;;;;;;;;;18.45;29.49;93656.59;2068593;69;20141;-77
2022/03/26 09:09:52;;;;;;;;;;;;;;;18.63;28.40;93651.00;2055805;69;20424;-77
2022/03/26 09:12:18;;;;;;;;;;;;;;;18.85;27.77;93662.72;2055623;70;20152;-76
2022/03/26 09:14:43;;;;;;;;;;;;;;;19.58;27.10;93653.03;2055533;70;20053;-76
2022/03/26 09:17:09;;;;;;;;;;;;;;;18.28;26.66;93651.53;2055619;70;20093;-76
2022/03/26 09:19:36;;;;;;;;;;;;;;;18.76;27.10;93653.06;2068556;69;20076;-76
2022/03/26 09:22:02;;;;;;;;;;;;;;;17.83;27.75;93655.06;2065880;69;20110;-76
2022/03/26 09:24:28;;;;;;;;;;;;;;;19.22;26.09;93650.09;2055691;70;20043;-77
2022/03/26 09:26:53;;;;;;;;;;;;;;;20.16;25.52;93648.31;2055694;69;20080;-77
2022/03/26 09:29:19;;;;;;;;;;;;;;;20.01;25.34;93641.28;2055569;70;20054;-78
2022/03/26 09:31:45;;;;;;;;;;;;;;;20.19;25.31;93647.00;2056088;69;20050;-79
2022/03/26 09:34:10;;;;;;;;;;;;;;;20.13;23.99;93647.50;2055807;69;20046;-79
2022/03/26 09:36:36;;;;;;;;;;;;;;;20.19;24.81;93635.56;2065884;69;20054;-80
2022/03/26 09:39:02;;;;;;;;;;;;;;;18.61;24.56;93633.81;2068669;69;20421;-79
2022/03/26 09:41:31;;;;;;;;;;;;;;;19.12;24.71;93623.97;2068804;69;20050;-81
2022/03/26 09:43:57;;;;;;;;;;;;;;;19.86;25.43;93631.41;2055693;69;20053;-76
2022/03/26 09:46:24;;;;;;;;;;;;;;;20.91;23.94;93633.34;2055616;70;20054;-77
2022/03/26 09:48:49;;;;;;;;;;;;;;;21.78;23.63;93633.59;2055688;69;20058;-78
2022/03/26 09:51:19;;;;;;;;;;;;;;;20.74;22.15;93629.88;2055698;70;20572;-77
2022/03/26 09:53:45;;;;;;;;;;;;;;;22.18;21.55;93624.91;2055605;70;20581;-81
2022/03/26 09:56:12;;;;;;;;;;;;;;;21.00;22.29;93623.69;2068671;69;20046;-80
2022/03/26 09:58:37;;;;;;;;;;;;;;;19.94;23.03;93622.44;2068613;69;20054;-81
2022/03/26 10:01:03;;;;;;;;;;;;;;;20.78;22.92;93615.00;2055532;70;20053;-79
2022/03/26 10:03:33;;;;;;;;;;;;;;;20.48;22.48;93623.91;2055756;69;20137;-78
2022/03/26 10:06:03;;;;;;;;;;;;;;;21.71;21.84;93616.88;2055606;70;20534;-77
2022/03/26 10:08:33;;;;;;;;;;;;;;;21.86;20.53;93613.09;2065813;69;20046;-76
2022/03/26 10:10:58;;;;;;;;;;;;;;;21.06;22.71;93603.84;2055838;69;20062;-77
2022/03/26 10:13:42;;;;;;;;;;;;;;;22.63;20.66;93611.94;2068483;69;20069;-76
2022/03/26 10:16:09;;;;;;;;;;;;;;;23.21;21.16;93603.63;2055611;69;20136;-76
2022/03/26 10:18:36;;;;;;;;;;;;;;;23.84;20.69;93604.59;2055676;69;20090;-76
2022/03/26 10:21:04;;;;;;;;;;;;;;;23.89;20.83;93599.69;2065791;69;20161;-76
2022/03/26 10:23:30;;;;;;;;;;;;;;;23.09;18.68;93600.41;2055571;70;20054;-77
2022/03/26 10:26:06;;;;;;;;;;;;;;;23.15;19.83;93594.84;2068536;69;20061;-77
2022/03/26 10:28:32;;;;;;;;;;;;;;;23.77;18.90;93588.59;2055771;70;20074;-75
2022/03/26 10:34:10;;;;;;;;;;;;;;;24.74;18.37;93580.84;2055555;70;20582;-76
2022/03/26 10:36:36;;;;;;;;;;;;;;;24.33;18.47;93586.41;2065790;69;20054;-76
2022/03/26 10:39:14;;;;;;;;;;;;;;;25.50;18.02;93583.88;2065650;69;20074;-76
2022/03/26 10:41:40;;;;;;;;;;;;;;;25.29;16.80;93582.75;2055520;70;20486;-75
2022/03/26 10:44:08;;;;;;;;;;;;;;;25.67;16.52;93581.28;2054860;69;20050;-76
2022/03/26 10:46:42;;;;;;;;;;;;;;;26.32;16.93;93576.66;2054918;69;20058;-74
2022/03/26 10:49:08;;;;;;;;;;;;;;;25.46;17.42;93569.38;2055502;70;20053;-76
2022/03/26 10:51:42;;;;;;;;;;;;;;;26.99;16.10;93571.13;2055352;70;20145;-76
2022/03/26 10:54:10;;;;;;;;;;;;;;;24.46;18.42;93561.53;2061463;69;20056;-77
2022/03/26 10:56:37;;;;;;;;;;;;;;;26.35;16.72;93561.56;2051594;70;20815;-75
2022/03/26 10:59:03;;;;;;;;;;;;;;;26.36;16.86;93562.28;2051490;70;20063;-75
2022/03/26 11:01:28;;;;;;;;;;;;;;;26.88;16.47;93563.75;2048324;70;20130;-76
2022/03/26 11:03:54;;;;;;;;;;;;;;;28.78;15.34;93561.34;2051509;70;20124;-74
2022/03/26 11:06:24;;;;;;;;;;;;;;;27.17;16.02;93561.97;2051988;69;20051;-75
2022/03/26 11:08:51;;;;;;;;;;;;;;;28.03;15.94;93557.84;2051795;70;20050;-77
2022/03/26 11:11:17;;;;;;;;;;;;;;;30.31;14.58;93553.16;2051979;69;20046;-74
2022/03/26 11:13:48;;;;;;;;;;;;;;;30.08;14.34;93555.28;2051722;70;20149;-77
2022/03/26 11:16:32;;;;;;;;;;;;;;;32.07;13.91;93550.44;2051648;70;20444;-75
2022/03/26 11:19:13;;;;;;;;;;;;;;;32.21;12.95;93548.88;2051357;70;20059;-75
2022/03/26 11:21:58;;;;;;;;;;;;;;;34.08;13.19;93535.19;2051703;70;20058;-76
2022/03/26 11:24:27;;;;;;;;;;;;;;;33.66;12.27;93538.69;2046296;70;20051;-75
2022/03/26 11:27:28;;;;;;;;;;;;;;;36.16;11.02;93539.41;2051575;70;20057;-74
2022/03/26 11:29:54;;;;;;;;;;;;;;;34.99;11.07;93534.47;2037735;70;20210;-75
2022/03/26 11:32:26;;;;;;;;;;;;;;;32.18;12.51;93527.78;2049217;70;20066;-75
2022/03/26 11:34:58;;;;;;;;;;;;;;;35.10;11.68;93527.66;2051512;70;20053;-74
2022/03/26 11:37:23;;;;;;;;;;;;;;;35.67;10.99;93537.53;2051650;70;20051;-75
2022/03/26 11:39:51;;;;;;;;;;;;;;;37.08;10.59;93525.44;2047832;70;20055;-77
2022/03/26 11:42:36;;;;;;;;;;;;;;;38.70;9.33;93527.25;2051471;69;20069;-78
2022/03/26 11:51:19;;;;;;;;;;;;;;;38.28;9.64;93518.28;2054869;69;20051;-76
2022/03/26 11:53:47;;;;;;;;;;;;;;;38.16;9.78;93513.50;2048516;70;20055;-76
2022/03/26 11:56:31;;;;;;;;;;;;;;;32.87;11.14;93495.09;2052021;69;20394;-74
2022/03/26 11:59:02;;;;;;;;;;;;;;;33.82;10.83;93480.09;2051798;69;20397;-73
2022/03/26 12:01:34;;;;;;;;;;;;;;;35.67;9.58;93496.53;2051936;70;20059;-74
2022/03/26 12:04:07;;;;;;;;;;;;;;;37.15;9.59;93495.13;2052052;70;20063;-74
2022/03/26 12:06:40;;;;;;;;;;;;;;;31.70;11.49;93476.41;2051816;70;20090;-73
2022/03/26 12:09:06;;;;;;;;;;;;;;;33.24;11.08;93476.47;2048449;70;20090;-73
2022/03/26 12:11:32;;;;;;;;;;;;;;;34.79;10.25;93468.28;2048462;70;20620;-76
2022/03/26 12:13:59;;;;;;;;;;;;;;;31.74;12.05;93465.47;2047665;70;20058;-74
2022/03/26 12:16:46;;;;;;;;;;;;;;;33.77;10.63;93456.06;2048279;70;20107;-76
2022/03/26 12:19:11;;;;;;;;;;;;;;;36.39;9.64;93461.16;2048518;70;20505;-75
2022/03/26 12:21:48;;;;;;;;;;;;;;;34.04;10.54;93461.50;2048000;70;20161;-74
2022/03/26 12:24:17;;;;;;;;;;;;;;;37.60;9.45;93461.56;2048650;70;20168;-74
2022/03/26 12:26:49;;;;;;;;;;;;;;;36.23;9.01;93457.91;2048729;70;20169;-75
2022/03/26 12:29:15;;;;;;;;;;;;;;;34.97;9.54;93449.69;2048437;70;20194;-74
2022/03/26 12:31:40;;;;;;;;;;;;;;;35.82;9.16;93450.78;2047911;70;20099;-74
2022/03/26 12:34:06;;;;;;;;;;;;;;;35.67;9.44;93460.66;2048585;70;20054;-75
2022/03/26 12:36:34;;;;;;;;;;;;;;;31.76;11.85;93445.09;2047876;70;20066;-76
2022/03/26 12:39:00;;;;;;;;;;;;;;;33.34;10.21;93435.50;2048459;70;20063;-75
2022/03/26 12:41:30;;;;;;;;;;;;;;;31.55;11.47;93432.84;2048624;70;20062;-76
2022/03/26 12:43:56;;;;;;;;;;;;;;;33.49;10.85;93438.94;2048790;70;20078;-77
2022/03/26 12:46:30;;;;;;;;;;;;;;;34.29;10.28;93429.69;2048806;70;20161;-76
2022/03/26 12:48:55;;;;;;;;;;;;;;;33.32;10.90;93430.41;2048982;70;20149;-77
2022/03/26 12:51:22;;;;;;;;;;;;;;;34.99;9.59;93432.06;2048131;70;20070;-74
2022/03/26 12:53:48;;;;;;;;;;;;;;;34.20;9.66;93428.38;2048378;70;20142;-74
2022/03/26 12:56:15;;;;;;;;;;;;;;;35.12;9.61;93428.13;2048217;70;20071;-77
2022/03/26 12:59:00;;;;;;;;;;;;;;;35.94;9.24;93426.34;2048930;70;20093;-74
2022/03/26 13:01:26;;;;;;;;;;;;;;;34.49;9.44;93417.66;2048207;70;20059;-75